Aérodrome :
LOGIN :

S'inscrire | Disclaimer

   EN    FR    IT 

 










Légende :    VFR   VFR Marginal   IFR   IFR Intensif   IFR Très Intensif
Visi : 
Plafond : 
>= 8 km
>= 3000ft
5 à 8 km
1000 à 3000 ft
1500m à 5 km
500 à 1000 ft
800 à 1500m
200 à 500 ft
< 800m
< 200 ft
Symboles :   Orages  Brouillard  Fortes neiges  Fortes précipitations  Vent > 20 kt
SIGMETs :   Divers  Orages  Givrage  Turbulence  Onde Orograph.  Cendres Volcan.






- Altitude de l'aérodrome : 436 ft
- Code IATA : ANG


LFBU - Angoulême Brie Champniers

DERNIER METAR :
  • 220230Z AUTO 14006KT 100V190 CAVOK 15/14 Q1011

METARs EXPIRÉS :
  • 220200Z AUTO 14007KT 110V180 CAVOK 15/14 Q1011
  • 220130Z AUTO 14006KT 090V170 CAVOK 15/14 Q1011
  • 220100Z AUTO 15008KT 110V180 CAVOK 15/14 Q1011
  • 220030Z AUTO 14006KT 100V180 CAVOK 15/14 Q1011
  • 220000Z AUTO 13005KT 090V170 CAVOK 15/14 Q1011

TAF AMD TAF LFBU
Valide du 21 à 19h jusqu'au 22 à 18h UTC


211921Z 2119/2218 17005KT 9999 BKN035
TEMPO 2119/2202 SHRA BKN030TCU
PROB30
TEMPO 2119/2124 VRB15G25KT BKN030CB
PROB30
TEMPO 2202/2208 3000 BR
TEMPO 2209/2218 SHRA BKN040TCU
PROB30
TEMPO 2214/2218 VRB15G25KT 3000 TSRA BKN030CB



MET'MAP, la Météo Aéronautique d'un coup d'oeil ! - Copyright ORBIFLY Décembre 2007 - Disclaimer

ORBIFLY MET'MAP TEAM :

Programmation & Développement : Alexandra Zaïnal
Sur une idée originale de : Baudouin d'Aumeries
Assistance à la programmation : Marc-Olivier Méhu
Soutien technique & logistique : Manuel Goepfert

Contact : metmap@orbifly.com




SOURCES & CREDITS :

   NOAA